sensor_id;sensor_type;location;lat;lon;timestamp;P1;durP1;ratioP1;P2;durP2;ratioP2
51374;SDS011;37465;52.738;4.752;2024-01-11T00:02:08;25.60;;;13.88;;
51374;SDS011;37465;52.738;4.752;2024-01-11T00:04:36;24.23;;;13.32;;
51374;SDS011;37465;52.738;4.752;2024-01-11T00:07:04;21.75;;;12.45;;
51374;SDS011;37465;52.738;4.752;2024-01-11T00:09:32;21.63;;;12.32;;
51374;SDS011;37465;52.738;4.752;2024-01-11T00:12:01;22.88;;;13.65;;
51374;SDS011;37465;52.738;4.752;2024-01-11T00:14:28;25.60;;;13.93;;
51374;SDS011;37465;52.738;4.752;2024-01-11T00:16:56;23.30;;;12.90;;
51374;SDS011;37465;52.738;4.752;2024-01-11T00:19:24;26.27;;;13.80;;
51374;SDS011;37465;52.738;4.752;2024-01-11T00:21:52;22.55;;;12.75;;
51374;SDS011;37465;52.738;4.752;2024-01-11T00:24:20;21.10;;;12.82;;
51374;SDS011;37465;52.738;4.752;2024-01-11T00:26:48;23.23;;;12.98;;
51374;SDS011;37465;52.738;4.752;2024-01-11T00:29:17;25.35;;;13.88;;
51374;SDS011;37465;52.738;4.752;2024-01-11T00:31:45;23.85;;;13.73;;
51374;SDS011;37465;52.738;4.752;2024-01-11T00:34:12;26.33;;;13.90;;
51374;SDS011;37465;52.738;4.752;2024-01-11T00:36:40;24.25;;;13.57;;
51374;SDS011;37465;52.738;4.752;2024-01-11T00:39:09;24.92;;;13.07;;
51374;SDS011;37465;52.738;4.752;2024-01-11T00:41:38;24.15;;;12.45;;
51374;SDS011;37465;52.738;4.752;2024-01-11T00:44:06;23.42;;;13.10;;
51374;SDS011;37465;52.738;4.752;2024-01-11T00:46:35;20.27;;;11.57;;
51374;SDS011;37465;52.738;4.752;2024-01-11T00:49:04;21.35;;;12.15;;
51374;SDS011;37465;52.738;4.752;2024-01-11T00:51:32;24.00;;;13.57;;
51374;SDS011;37465;52.738;4.752;2024-01-11T00:54:00;25.80;;;13.77;;
51374;SDS011;37465;52.738;4.752;2024-01-11T00:56:28;25.40;;;14.38;;
51374;SDS011;37465;52.738;4.752;2024-01-11T00:58:56;21.45;;;12.77;;
51374;SDS011;37465;52.738;4.752;2024-01-11T01:01:24;26.23;;;13.55;;
51374;SDS011;37465;52.738;4.752;2024-01-11T01:03:53;26.52;;;13.95;;
51374;SDS011;37465;52.738;4.752;2024-01-11T01:06:21;20.55;;;12.52;;
51374;SDS011;37465;52.738;4.752;2024-01-11T01:08:48;26.10;;;13.93;;
51374;SDS011;37465;52.738;4.752;2024-01-11T01:11:16;24.13;;;14.00;;
51374;SDS011;37465;52.738;4.752;2024-01-11T01:13:44;22.15;;;12.80;;
51374;SDS011;37465;52.738;4.752;2024-01-11T01:16:11;20.05;;;12.52;;
51374;SDS011;37465;52.738;4.752;2024-01-11T01:18:40;26.20;;;14.20;;
51374;SDS011;37465;52.738;4.752;2024-01-11T01:21:09;22.00;;;13.05;;
51374;SDS011;37465;52.738;4.752;2024-01-11T01:23:37;27.10;;;14.25;;
51374;SDS011;37465;52.738;4.752;2024-01-11T01:26:05;24.58;;;14.48;;
51374;SDS011;37465;52.738;4.752;2024-01-11T01:28:33;26.33;;;15.15;;
51374;SDS011;37465;52.738;4.752;2024-01-11T01:31:01;21.85;;;12.90;;
51374;SDS011;37465;52.738;4.752;2024-01-11T01:33:29;24.33;;;14.13;;
51374;SDS011;37465;52.738;4.752;2024-01-11T01:35:56;24.83;;;13.70;;
51374;SDS011;37465;52.738;4.752;2024-01-11T01:38:25;24.92;;;14.77;;
51374;SDS011;37465;52.738;4.752;2024-01-11T01:40:53;30.10;;;15.27;;
51374;SDS011;37465;52.738;4.752;2024-01-11T01:43:21;24.98;;;14.18;;
51374;SDS011;37465;52.738;4.752;2024-01-11T01:45:48;26.55;;;15.55;;
51374;SDS011;37465;52.738;4.752;2024-01-11T01:48:16;22.65;;;14.23;;
51374;SDS011;37465;52.738;4.752;2024-01-11T01:50:44;22.80;;;13.77;;
51374;SDS011;37465;52.738;4.752;2024-01-11T01:53:17;26.00;;;14.38;;
51374;SDS011;37465;52.738;4.752;2024-01-11T01:55:46;21.02;;;12.63;;
51374;SDS011;37465;52.738;4.752;2024-01-11T01:58:14;21.05;;;12.95;;
51374;SDS011;37465;52.738;4.752;2024-01-11T02:00:43;27.42;;;15.07;;
51374;SDS011;37465;52.738;4.752;2024-01-11T02:03:11;27.90;;;15.68;;
51374;SDS011;37465;52.738;4.752;2024-01-11T02:05:39;26.23;;;14.55;;
51374;SDS011;37465;52.738;4.752;2024-01-11T02:08:07;24.92;;;14.43;;
51374;SDS011;37465;52.738;4.752;2024-01-11T02:10:36;23.13;;;13.20;;
51374;SDS011;37465;52.738;4.752;2024-01-11T02:13:05;23.27;;;13.43;;
51374;SDS011;37465;52.738;4.752;2024-01-11T02:15:36;27.50;;;15.00;;
51374;SDS011;37465;52.738;4.752;2024-01-11T02:18:04;22.42;;;13.88;;
51374;SDS011;37465;52.738;4.752;2024-01-11T02:20:31;20.92;;;13.35;;
51374;SDS011;37465;52.738;4.752;2024-01-11T02:23:01;25.20;;;15.30;;
51374;SDS011;37465;52.738;4.752;2024-01-11T02:25:30;23.92;;;14.05;;
51374;SDS011;37465;52.738;4.752;2024-01-11T02:27:57;24.40;;;14.05;;
51374;SDS011;37465;52.738;4.752;2024-01-11T02:30:25;21.27;;;12.35;;
51374;SDS011;37465;52.738;4.752;2024-01-11T02:32:53;26.83;;;14.88;;
51374;SDS011;37465;52.738;4.752;2024-01-11T02:35:21;29.13;;;15.23;;
51374;SDS011;37465;52.738;4.752;2024-01-11T02:37:49;23.73;;;13.95;;
51374;SDS011;37465;52.738;4.752;2024-01-11T02:40:17;21.42;;;13.68;;
51374;SDS011;37465;52.738;4.752;2024-01-11T02:42:47;21.90;;;13.18;;
51374;SDS011;37465;52.738;4.752;2024-01-11T02:45:15;21.85;;;12.48;;
51374;SDS011;37465;52.738;4.752;2024-01-11T02:47:42;21.63;;;12.93;;
51374;SDS011;37465;52.738;4.752;2024-01-11T02:50:10;20.00;;;12.93;;
51374;SDS011;37465;52.738;4.752;2024-01-11T02:52:38;22.95;;;12.65;;
51374;SDS011;37465;52.738;4.752;2024-01-11T02:55:06;23.67;;;13.82;;
51374;SDS011;37465;52.738;4.752;2024-01-11T02:57:34;24.38;;;13.50;;
51374;SDS011;37465;52.738;4.752;2024-01-11T03:00:03;24.88;;;13.48;;
51374;SDS011;37465;52.738;4.752;2024-01-11T03:04:58;21.33;;;11.52;;
51374;SDS011;37465;52.738;4.752;2024-01-11T03:07:26;20.17;;;11.65;;
51374;SDS011;37465;52.738;4.752;2024-01-11T03:09:54;18.20;;;9.77;;
51374;SDS011;37465;52.738;4.752;2024-01-11T03:12:22;21.73;;;12.05;;
51374;SDS011;37465;52.738;4.752;2024-01-11T03:14:52;20.20;;;12.10;;
51374;SDS011;37465;52.738;4.752;2024-01-11T03:17:21;21.25;;;12.57;;
51374;SDS011;37465;52.738;4.752;2024-01-11T03:19:48;22.48;;;12.32;;
51374;SDS011;37465;52.738;4.752;2024-01-11T03:22:16;31.95;;;14.45;;
51374;SDS011;37465;52.738;4.752;2024-01-11T03:24:43;23.80;;;13.25;;
51374;SDS011;37465;52.738;4.752;2024-01-11T03:27:11;22.58;;;12.63;;
51374;SDS011;37465;52.738;4.752;2024-01-11T03:29:39;27.77;;;14.35;;
51374;SDS011;37465;52.738;4.752;2024-01-11T03:32:06;26.88;;;15.30;;
51374;SDS011;37465;52.738;4.752;2024-01-11T03:34:35;25.17;;;14.63;;
51374;SDS011;37465;52.738;4.752;2024-01-11T03:37:03;28.30;;;14.07;;
51374;SDS011;37465;52.738;4.752;2024-01-11T03:39:31;28.40;;;15.05;;
51374;SDS011;37465;52.738;4.752;2024-01-11T03:41:58;25.65;;;14.10;;
51374;SDS011;37465;52.738;4.752;2024-01-11T03:44:26;23.58;;;14.10;;
51374;SDS011;37465;52.738;4.752;2024-01-11T03:46:54;34.63;;;17.00;;
51374;SDS011;37465;52.738;4.752;2024-01-11T03:49:21;30.77;;;16.23;;
51374;SDS011;37465;52.738;4.752;2024-01-11T03:51:51;31.40;;;16.50;;
51374;SDS011;37465;52.738;4.752;2024-01-11T03:54:19;33.95;;;16.92;;
51374;SDS011;37465;52.738;4.752;2024-01-11T03:56:47;27.40;;;15.93;;
51374;SDS011;37465;52.738;4.752;2024-01-11T03:59:14;27.30;;;15.02;;
51374;SDS011;37465;52.738;4.752;2024-01-11T04:01:43;24.80;;;14.18;;
51374;SDS011;37465;52.738;4.752;2024-01-11T04:04:10;24.38;;;14.45;;
51374;SDS011;37465;52.738;4.752;2024-01-11T04:06:38;29.27;;;15.32;;
51374;SDS011;37465;52.738;4.752;2024-01-11T04:09:07;27.67;;;16.00;;
51374;SDS011;37465;52.738;4.752;2024-01-11T04:11:35;24.83;;;14.45;;
51374;SDS011;37465;52.738;4.752;2024-01-11T04:14:03;26.95;;;15.60;;
51374;SDS011;37465;52.738;4.752;2024-01-11T04:16:30;25.60;;;14.93;;
51374;SDS011;37465;52.738;4.752;2024-01-11T04:18:58;27.08;;;14.77;;
51374;SDS011;37465;52.738;4.752;2024-01-11T04:21:26;27.10;;;15.68;;
51374;SDS011;37465;52.738;4.752;2024-01-11T04:23:54;24.77;;;13.80;;
51374;SDS011;37465;52.738;4.752;2024-01-11T04:26:24;24.77;;;14.05;;
51374;SDS011;37465;52.738;4.752;2024-01-11T04:28:51;21.77;;;12.82;;
51374;SDS011;37465;52.738;4.752;2024-01-11T04:31:23;25.45;;;13.88;;
51374;SDS011;37465;52.738;4.752;2024-01-11T04:33:51;27.77;;;14.85;;
51374;SDS011;37465;52.738;4.752;2024-01-11T04:36:18;23.13;;;13.57;;
51374;SDS011;37465;52.738;4.752;2024-01-11T04:38:46;29.08;;;14.98;;
51374;SDS011;37465;52.738;4.752;2024-01-11T04:41:14;25.00;;;14.82;;
51374;SDS011;37465;52.738;4.752;2024-01-11T04:43:44;26.08;;;13.10;;
51374;SDS011;37465;52.738;4.752;2024-01-11T04:46:15;25.05;;;14.10;;
51374;SDS011;37465;52.738;4.752;2024-01-11T04:48:43;30.30;;;14.88;;
51374;SDS011;37465;52.738;4.752;2024-01-11T04:51:11;22.23;;;12.80;;
51374;SDS011;37465;52.738;4.752;2024-01-11T04:53:39;25.90;;;13.70;;
51374;SDS011;37465;52.738;4.752;2024-01-11T04:56:08;28.23;;;14.27;;
51374;SDS011;37465;52.738;4.752;2024-01-11T04:58:36;21.20;;;12.90;;
51374;SDS011;37465;52.738;4.752;2024-01-11T05:01:06;19.08;;;11.27;;
51374;SDS011;37465;52.738;4.752;2024-01-11T05:06:01;16.95;;;10.30;;
51374;SDS011;37465;52.738;4.752;2024-01-11T05:08:28;24.58;;;12.73;;
51374;SDS011;37465;52.738;4.752;2024-01-11T05:10:56;19.45;;;12.55;;
51374;SDS011;37465;52.738;4.752;2024-01-11T05:13:24;19.45;;;11.70;;
51374;SDS011;37465;52.738;4.752;2024-01-11T05:15:51;19.30;;;11.30;;
51374;SDS011;37465;52.738;4.752;2024-01-11T05:18:20;18.98;;;11.20;;
51374;SDS011;37465;52.738;4.752;2024-01-11T05:20:51;20.65;;;11.82;;
51374;SDS011;37465;52.738;4.752;2024-01-11T05:23:18;20.92;;;12.50;;
51374;SDS011;37465;52.738;4.752;2024-01-11T05:25:46;21.75;;;12.32;;
51374;SDS011;37465;52.738;4.752;2024-01-11T05:28:14;28.70;;;14.52;;
51374;SDS011;37465;52.738;4.752;2024-01-11T05:30:41;22.95;;;13.07;;
51374;SDS011;37465;52.738;4.752;2024-01-11T05:33:09;26.30;;;13.57;;
51374;SDS011;37465;52.738;4.752;2024-01-11T05:35:38;25.90;;;13.18;;
51374;SDS011;37465;52.738;4.752;2024-01-11T05:38:06;24.13;;;12.55;;
51374;SDS011;37465;52.738;4.752;2024-01-11T05:40:34;22.55;;;13.80;;
51374;SDS011;37465;52.738;4.752;2024-01-11T05:43:01;23.00;;;12.80;;
51374;SDS011;37465;52.738;4.752;2024-01-11T05:45:29;22.42;;;12.95;;
51374;SDS011;37465;52.738;4.752;2024-01-11T05:48:12;22.88;;;13.23;;
51374;SDS011;37465;52.738;4.752;2024-01-11T05:50:41;22.08;;;13.07;;
51374;SDS011;37465;52.738;4.752;2024-01-11T05:53:09;23.73;;;14.32;;
51374;SDS011;37465;52.738;4.752;2024-01-11T05:55:37;23.13;;;13.93;;
51374;SDS011;37465;52.738;4.752;2024-01-11T05:58:04;28.25;;;14.25;;
51374;SDS011;37465;52.738;4.752;2024-01-11T06:00:32;28.92;;;15.90;;
51374;SDS011;37465;52.738;4.752;2024-01-11T06:03:00;24.35;;;12.40;;
51374;SDS011;37465;52.738;4.752;2024-01-11T06:05:28;20.20;;;13.27;;
51374;SDS011;37465;52.738;4.752;2024-01-11T06:07:56;22.52;;;13.82;;
51374;SDS011;37465;52.738;4.752;2024-01-11T06:10:24;23.00;;;13.20;;
51374;SDS011;37465;52.738;4.752;2024-01-11T06:12:52;23.02;;;14.13;;
51374;SDS011;37465;52.738;4.752;2024-01-11T06:15:19;23.15;;;13.10;;
51374;SDS011;37465;52.738;4.752;2024-01-11T06:17:47;28.00;;;15.02;;
51374;SDS011;37465;52.738;4.752;2024-01-11T06:20:15;24.40;;;13.68;;
51374;SDS011;37465;52.738;4.752;2024-01-11T06:22:42;23.63;;;13.32;;
51374;SDS011;37465;52.738;4.752;2024-01-11T06:25:13;20.70;;;12.30;;
51374;SDS011;37465;52.738;4.752;2024-01-11T06:27:41;21.05;;;12.95;;
51374;SDS011;37465;52.738;4.752;2024-01-11T06:30:09;22.10;;;12.90;;
51374;SDS011;37465;52.738;4.752;2024-01-11T06:32:37;17.50;;;11.75;;
51374;SDS011;37465;52.738;4.752;2024-01-11T06:35:05;22.40;;;13.27;;
51374;SDS011;37465;52.738;4.752;2024-01-11T06:37:33;17.27;;;10.77;;
51374;SDS011;37465;52.738;4.752;2024-01-11T06:40:00;27.75;;;15.35;;
51374;SDS011;37465;52.738;4.752;2024-01-11T06:42:31;27.02;;;14.82;;
51374;SDS011;37465;52.738;4.752;2024-01-11T06:44:59;22.60;;;13.93;;
51374;SDS011;37465;52.738;4.752;2024-01-11T06:47:26;24.83;;;15.35;;
51374;SDS011;37465;52.738;4.752;2024-01-11T06:49:54;27.40;;;15.02;;
51374;SDS011;37465;52.738;4.752;2024-01-11T06:52:22;33.78;;;16.85;;
51374;SDS011;37465;52.738;4.752;2024-01-11T06:54:50;31.38;;;17.38;;
51374;SDS011;37465;52.738;4.752;2024-01-11T06:57:17;36.38;;;18.25;;
51374;SDS011;37465;52.738;4.752;2024-01-11T06:59:46;30.55;;;17.33;;
51374;SDS011;37465;52.738;4.752;2024-01-11T07:02:15;24.73;;;14.18;;
51374;SDS011;37465;52.738;4.752;2024-01-11T07:04:43;29.50;;;16.95;;
51374;SDS011;37465;52.738;4.752;2024-01-11T07:07:11;24.83;;;14.75;;
51374;SDS011;37465;52.738;4.752;2024-01-11T07:09:39;34.58;;;19.08;;
51374;SDS011;37465;52.738;4.752;2024-01-11T07:12:07;35.17;;;20.15;;
51374;SDS011;37465;52.738;4.752;2024-01-11T07:14:35;32.88;;;19.48;;
51374;SDS011;37465;52.738;4.752;2024-01-11T07:17:05;34.05;;;19.08;;
51374;SDS011;37465;52.738;4.752;2024-01-11T07:19:33;35.00;;;19.85;;
51374;SDS011;37465;52.738;4.752;2024-01-11T07:22:02;30.65;;;17.48;;
51374;SDS011;37465;52.738;4.752;2024-01-11T07:24:30;32.38;;;18.48;;
51374;SDS011;37465;52.738;4.752;2024-01-11T07:27:04;34.15;;;18.65;;
51374;SDS011;37465;52.738;4.752;2024-01-11T07:29:32;31.42;;;17.95;;
51374;SDS011;37465;52.738;4.752;2024-01-11T07:32:01;28.20;;;17.40;;
51374;SDS011;37465;52.738;4.752;2024-01-11T07:36:59;29.15;;;17.63;;
51374;SDS011;37465;52.738;4.752;2024-01-11T07:39:30;25.77;;;16.23;;
51374;SDS011;37465;52.738;4.752;2024-01-11T07:41:58;27.48;;;17.60;;
51374;SDS011;37465;52.738;4.752;2024-01-11T07:44:26;32.03;;;18.15;;
51374;SDS011;37465;52.738;4.752;2024-01-11T07:46:53;32.28;;;19.45;;
51374;SDS011;37465;52.738;4.752;2024-01-11T07:49:26;31.67;;;19.05;;
51374;SDS011;37465;52.738;4.752;2024-01-11T07:51:53;29.10;;;16.77;;
51374;SDS011;37465;52.738;4.752;2024-01-11T07:54:22;24.88;;;15.52;;
51374;SDS011;37465;52.738;4.752;2024-01-11T07:56:50;26.33;;;16.80;;
51374;SDS011;37465;52.738;4.752;2024-01-11T07:59:18;32.10;;;18.33;;
51374;SDS011;37465;52.738;4.752;2024-01-11T08:01:45;27.92;;;17.05;;
51374;SDS011;37465;52.738;4.752;2024-01-11T08:04:14;26.13;;;16.60;;
51374;SDS011;37465;52.738;4.752;2024-01-11T08:06:42;29.73;;;17.52;;
51374;SDS011;37465;52.738;4.752;2024-01-11T08:09:09;26.85;;;17.02;;
51374;SDS011;37465;52.738;4.752;2024-01-11T08:11:41;30.88;;;17.65;;
51374;SDS011;37465;52.738;4.752;2024-01-11T08:14:16;26.13;;;16.05;;
51374;SDS011;37465;52.738;4.752;2024-01-11T08:16:43;27.00;;;16.60;;
51374;SDS011;37465;52.738;4.752;2024-01-11T08:19:12;25.33;;;17.10;;
51374;SDS011;37465;52.738;4.752;2024-01-11T08:21:41;25.17;;;15.75;;
51374;SDS011;37465;52.738;4.752;2024-01-11T08:24:09;24.25;;;16.15;;
51374;SDS011;37465;52.738;4.752;2024-01-11T08:26:37;25.83;;;16.95;;
51374;SDS011;37465;52.738;4.752;2024-01-11T08:29:07;26.17;;;17.67;;
51374;SDS011;37465;52.738;4.752;2024-01-11T08:31:36;26.52;;;17.10;;
51374;SDS011;37465;52.738;4.752;2024-01-11T08:34:05;27.25;;;17.05;;
51374;SDS011;37465;52.738;4.752;2024-01-11T08:36:33;27.42;;;16.45;;
51374;SDS011;37465;52.738;4.752;2024-01-11T08:39:02;28.55;;;17.83;;
51374;SDS011;37465;52.738;4.752;2024-01-11T08:41:32;27.45;;;17.38;;
51374;SDS011;37465;52.738;4.752;2024-01-11T08:44:00;30.08;;;17.35;;
51374;SDS011;37465;52.738;4.752;2024-01-11T08:46:30;29.33;;;22.00;;
51374;SDS011;37465;52.738;4.752;2024-01-11T08:48:59;30.30;;;20.15;;
51374;SDS011;37465;52.738;4.752;2024-01-11T08:51:30;29.65;;;20.92;;
51374;SDS011;37465;52.738;4.752;2024-01-11T08:53:58;30.88;;;20.08;;
51374;SDS011;37465;52.738;4.752;2024-01-11T08:56:26;28.85;;;20.13;;
51374;SDS011;37465;52.738;4.752;2024-01-11T08:58:54;39.03;;;24.60;;
51374;SDS011;37465;52.738;4.752;2024-01-11T09:01:21;33.35;;;23.73;;
51374;SDS011;37465;52.738;4.752;2024-01-11T09:03:53;34.55;;;25.58;;
51374;SDS011;37465;52.738;4.752;2024-01-11T09:06:20;30.55;;;23.55;;
51374;SDS011;37465;52.738;4.752;2024-01-11T09:08:48;37.15;;;25.17;;
51374;SDS011;37465;52.738;4.752;2024-01-11T09:11:16;30.23;;;20.83;;
51374;SDS011;37465;52.738;4.752;2024-01-11T09:13:44;29.60;;;20.10;;
51374;SDS011;37465;52.738;4.752;2024-01-11T09:16:14;28.73;;;19.33;;
51374;SDS011;37465;52.738;4.752;2024-01-11T09:18:42;37.65;;;24.63;;
51374;SDS011;37465;52.738;4.752;2024-01-11T09:21:12;32.05;;;20.77;;
51374;SDS011;37465;52.738;4.752;2024-01-11T09:23:40;29.15;;;19.52;;
51374;SDS011;37465;52.738;4.752;2024-01-11T09:26:07;30.80;;;20.35;;
51374;SDS011;37465;52.738;4.752;2024-01-11T09:28:35;34.33;;;21.13;;
51374;SDS011;37465;52.738;4.752;2024-01-11T09:31:03;30.40;;;20.45;;
51374;SDS011;37465;52.738;4.752;2024-01-11T09:33:30;31.85;;;21.02;;
51374;SDS011;37465;52.738;4.752;2024-01-11T09:35:58;29.80;;;20.52;;
51374;SDS011;37465;52.738;4.752;2024-01-11T09:38:27;29.60;;;19.55;;
51374;SDS011;37465;52.738;4.752;2024-01-11T09:40:58;29.23;;;19.85;;
51374;SDS011;37465;52.738;4.752;2024-01-11T09:43:27;36.20;;;25.10;;
51374;SDS011;37465;52.738;4.752;2024-01-11T09:45:55;35.83;;;23.13;;
51374;SDS011;37465;52.738;4.752;2024-01-11T09:48:23;38.22;;;24.15;;
51374;SDS011;37465;52.738;4.752;2024-01-11T09:50:51;33.58;;;22.02;;
51374;SDS011;37465;52.738;4.752;2024-01-11T09:53:19;41.25;;;25.27;;
51374;SDS011;37465;52.738;4.752;2024-01-11T09:55:50;38.78;;;24.80;;
51374;SDS011;37465;52.738;4.752;2024-01-11T09:58:18;29.67;;;20.38;;
51374;SDS011;37465;52.738;4.752;2024-01-11T10:00:48;34.65;;;20.33;;
51374;SDS011;37465;52.738;4.752;2024-01-11T10:03:16;35.70;;;20.17;;
51374;SDS011;37465;52.738;4.752;2024-01-11T10:05:45;30.27;;;20.75;;
51374;SDS011;37465;52.738;4.752;2024-01-11T10:08:14;28.77;;;19.25;;
51374;SDS011;37465;52.738;4.752;2024-01-11T10:10:59;31.58;;;20.65;;
51374;SDS011;37465;52.738;4.752;2024-01-11T10:13:27;27.90;;;19.92;;
51374;SDS011;37465;52.738;4.752;2024-01-11T10:16:04;32.20;;;21.73;;
51374;SDS011;37465;52.738;4.752;2024-01-11T10:18:32;30.35;;;19.98;;
51374;SDS011;37465;52.738;4.752;2024-01-11T10:21:00;28.30;;;19.85;;
51374;SDS011;37465;52.738;4.752;2024-01-11T10:23:29;30.08;;;20.65;;
51374;SDS011;37465;52.738;4.752;2024-01-11T10:26:02;27.25;;;19.83;;
51374;SDS011;37465;52.738;4.752;2024-01-11T10:28:30;28.58;;;20.27;;
51374;SDS011;37465;52.738;4.752;2024-01-11T10:30:58;28.45;;;20.40;;
51374;SDS011;37465;52.738;4.752;2024-01-11T10:33:26;31.08;;;19.85;;
51374;SDS011;37465;52.738;4.752;2024-01-11T10:35:54;26.15;;;18.83;;
51374;SDS011;37465;52.738;4.752;2024-01-11T10:38:22;26.67;;;19.30;;
51374;SDS011;37465;52.738;4.752;2024-01-11T10:40:52;28.48;;;22.30;;
51374;SDS011;37465;52.738;4.752;2024-01-11T10:43:22;33.15;;;23.73;;
51374;SDS011;37465;52.738;4.752;2024-01-11T10:45:50;28.50;;;20.15;;
51374;SDS011;37465;52.738;4.752;2024-01-11T10:48:20;27.52;;;19.63;;
51374;SDS011;37465;52.738;4.752;2024-01-11T10:50:50;28.25;;;19.55;;
51374;SDS011;37465;52.738;4.752;2024-01-11T10:53:25;30.42;;;20.30;;
51374;SDS011;37465;52.738;4.752;2024-01-11T10:55:55;27.58;;;18.60;;
51374;SDS011;37465;52.738;4.752;2024-01-11T10:58:26;26.83;;;18.25;;
51374;SDS011;37465;52.738;4.752;2024-01-11T11:00:54;26.20;;;18.15;;
51374;SDS011;37465;52.738;4.752;2024-01-11T11:03:22;26.38;;;18.38;;
51374;SDS011;37465;52.738;4.752;2024-01-11T11:05:51;26.55;;;18.33;;
51374;SDS011;37465;52.738;4.752;2024-01-11T11:08:20;23.02;;;16.50;;
51374;SDS011;37465;52.738;4.752;2024-01-11T11:10:48;23.55;;;16.50;;
51374;SDS011;37465;52.738;4.752;2024-01-11T11:13:16;25.05;;;15.38;;
51374;SDS011;37465;52.738;4.752;2024-01-11T11:15:46;24.67;;;16.17;;
51374;SDS011;37465;52.738;4.752;2024-01-11T11:18:15;19.98;;;14.55;;
51374;SDS011;37465;52.738;4.752;2024-01-11T11:20:43;21.02;;;14.35;;
51374;SDS011;37465;52.738;4.752;2024-01-11T11:23:12;20.58;;;13.85;;
51374;SDS011;37465;52.738;4.752;2024-01-11T11:25:41;16.63;;;13.07;;
51374;SDS011;37465;52.738;4.752;2024-01-11T11:28:08;19.17;;;13.27;;
51374;SDS011;37465;52.738;4.752;2024-01-11T11:33:10;17.35;;;13.35;;
51374;SDS011;37465;52.738;4.752;2024-01-11T11:35:38;20.02;;;14.60;;
51374;SDS011;37465;52.738;4.752;2024-01-11T11:38:06;19.17;;;14.13;;
51374;SDS011;37465;52.738;4.752;2024-01-11T11:40:36;19.17;;;15.02;;
51374;SDS011;37465;52.738;4.752;2024-01-11T11:43:05;23.17;;;15.32;;
51374;SDS011;37465;52.738;4.752;2024-01-11T11:45:33;18.05;;;14.52;;
51374;SDS011;37465;52.738;4.752;2024-01-11T11:48:01;22.27;;;16.05;;
51374;SDS011;37465;52.738;4.752;2024-01-11T11:50:31;19.52;;;13.48;;
51374;SDS011;37465;52.738;4.752;2024-01-11T11:52:59;19.25;;;14.35;;
51374;SDS011;37465;52.738;4.752;2024-01-11T11:55:27;20.52;;;15.05;;
51374;SDS011;37465;52.738;4.752;2024-01-11T11:57:55;19.15;;;13.80;;
51374;SDS011;37465;52.738;4.752;2024-01-11T12:00:23;19.08;;;13.93;;
51374;SDS011;37465;52.738;4.752;2024-01-11T12:02:51;19.95;;;14.10;;
51374;SDS011;37465;52.738;4.752;2024-01-11T12:05:22;17.40;;;13.13;;
51374;SDS011;37465;52.738;4.752;2024-01-11T12:07:52;17.38;;;13.35;;
51374;SDS011;37465;52.738;4.752;2024-01-11T12:10:20;18.52;;;12.32;;
51374;SDS011;37465;52.738;4.752;2024-01-11T12:12:50;17.40;;;11.23;;
51374;SDS011;37465;52.738;4.752;2024-01-11T12:15:18;16.15;;;11.52;;
51374;SDS011;37465;52.738;4.752;2024-01-11T12:17:46;20.58;;;11.75;;
51374;SDS011;37465;52.738;4.752;2024-01-11T12:20:14;14.32;;;10.73;;
51374;SDS011;37465;52.738;4.752;2024-01-11T12:22:43;13.02;;;9.43;;
51374;SDS011;37465;52.738;4.752;2024-01-11T12:25:12;15.43;;;10.75;;
51374;SDS011;37465;52.738;4.752;2024-01-11T12:30:09;14.93;;;9.25;;
51374;SDS011;37465;52.738;4.752;2024-01-11T12:32:41;12.32;;;9.02;;
51374;SDS011;37465;52.738;4.752;2024-01-11T12:35:09;13.73;;;8.90;;
51374;SDS011;37465;52.738;4.752;2024-01-11T12:37:39;15.13;;;10.20;;
51374;SDS011;37465;52.738;4.752;2024-01-11T12:40:07;15.48;;;9.07;;
51374;SDS011;37465;52.738;4.752;2024-01-11T12:42:42;11.80;;;9.00;;
51374;SDS011;37465;52.738;4.752;2024-01-11T12:45:11;11.82;;;9.18;;
51374;SDS011;37465;52.738;4.752;2024-01-11T12:47:39;10.93;;;8.25;;
51374;SDS011;37465;52.738;4.752;2024-01-11T12:50:07;12.18;;;7.85;;
51374;SDS011;37465;52.738;4.752;2024-01-11T12:52:38;10.40;;;6.20;;
51374;SDS011;37465;52.738;4.752;2024-01-11T12:55:17;12.30;;;5.15;;
51374;SDS011;37465;52.738;4.752;2024-01-11T12:57:47;11.30;;;4.50;;
51374;SDS011;37465;52.738;4.752;2024-01-11T13:00:15;12.55;;;3.45;;
51374;SDS011;37465;52.738;4.752;2024-01-11T13:02:44;13.88;;;2.63;;
51374;SDS011;37465;52.738;4.752;2024-01-11T13:05:13;12.07;;;2.40;;
51374;SDS011;37465;52.738;4.752;2024-01-11T13:07:42;11.02;;;2.67;;
51374;SDS011;37465;52.738;4.752;2024-01-11T13:10:11;8.60;;;1.95;;
51374;SDS011;37465;52.738;4.752;2024-01-11T13:12:38;18.85;;;4.30;;
51374;SDS011;37465;52.738;4.752;2024-01-11T13:15:08;11.23;;;2.45;;
51374;SDS011;37465;52.738;4.752;2024-01-11T13:17:36;14.25;;;2.83;;
51374;SDS011;37465;52.738;4.752;2024-01-11T13:20:05;10.25;;;2.38;;
51374;SDS011;37465;52.738;4.752;2024-01-11T13:22:34;12.38;;;2.85;;
51374;SDS011;37465;52.738;4.752;2024-01-11T13:25:02;20.27;;;2.70;;
51374;SDS011;37465;52.738;4.752;2024-01-11T13:27:32;17.30;;;3.13;;
51374;SDS011;37465;52.738;4.752;2024-01-11T13:30:01;14.88;;;2.95;;
51374;SDS011;37465;52.738;4.752;2024-01-11T13:32:30;18.50;;;3.45;;
51374;SDS011;37465;52.738;4.752;2024-01-11T13:37:26;17.48;;;3.25;;
51374;SDS011;37465;52.738;4.752;2024-01-11T13:39:54;23.00;;;4.50;;
51374;SDS011;37465;52.738;4.752;2024-01-11T13:42:22;17.55;;;3.30;;
51374;SDS011;37465;52.738;4.752;2024-01-11T13:44:50;16.58;;;3.63;;
51374;SDS011;37465;52.738;4.752;2024-01-11T13:47:18;21.10;;;3.80;;
51374;SDS011;37465;52.738;4.752;2024-01-11T13:49:47;19.13;;;3.45;;
51374;SDS011;37465;52.738;4.752;2024-01-11T13:52:15;26.30;;;4.40;;
51374;SDS011;37465;52.738;4.752;2024-01-11T13:54:43;23.35;;;3.78;;
51374;SDS011;37465;52.738;4.752;2024-01-11T13:57:11;18.83;;;2.53;;
51374;SDS011;37465;52.738;4.752;2024-01-11T13:59:39;21.33;;;3.65;;
51374;SDS011;37465;52.738;4.752;2024-01-11T14:02:07;19.33;;;4.18;;
51374;SDS011;37465;52.738;4.752;2024-01-11T14:04:35;22.55;;;4.53;;
51374;SDS011;37465;52.738;4.752;2024-01-11T14:07:04;23.58;;;5.43;;
51374;SDS011;37465;52.738;4.752;2024-01-11T14:09:32;23.15;;;5.35;;
51374;SDS011;37465;52.738;4.752;2024-01-11T14:12:00;29.13;;;5.78;;
51374;SDS011;37465;52.738;4.752;2024-01-11T14:14:28;19.33;;;4.65;;
51374;SDS011;37465;52.738;4.752;2024-01-11T14:16:57;23.40;;;4.20;;
51374;SDS011;37465;52.738;4.752;2024-01-11T14:19:24;18.05;;;3.90;;
51374;SDS011;37465;52.738;4.752;2024-01-11T14:21:52;20.00;;;4.18;;
51374;SDS011;37465;52.738;4.752;2024-01-11T14:24:20;15.88;;;3.33;;
51374;SDS011;37465;52.738;4.752;2024-01-11T14:26:58;16.38;;;3.80;;
51374;SDS011;37465;52.738;4.752;2024-01-11T14:29:25;22.35;;;3.53;;
51374;SDS011;37465;52.738;4.752;2024-01-11T14:31:53;13.95;;;3.05;;
51374;SDS011;37465;52.738;4.752;2024-01-11T14:34:21;25.48;;;4.40;;
51374;SDS011;37465;52.738;4.752;2024-01-11T14:36:51;24.60;;;4.28;;
51374;SDS011;37465;52.738;4.752;2024-01-11T14:39:20;29.38;;;5.95;;
51374;SDS011;37465;52.738;4.752;2024-01-11T14:41:49;19.92;;;3.83;;
51374;SDS011;37465;52.738;4.752;2024-01-11T14:44:17;20.33;;;4.20;;
51374;SDS011;37465;52.738;4.752;2024-01-11T14:46:45;21.10;;;4.28;;